Time;durP1;ratioP1;P1;durP2;ratioP2;P2;SDS_P1;SDS_P2;PMS_P1;PMS_P2;Temp;Humidity;BMP_temperature;BMP_pressure;BME280_temperature;BME280_humidity;BME280_pressure;Samples;Min_cycle;Max_cycle;Signal;HPM_P1;HPM_P2
2022/12/28 00:01:28;;;;;;;5.50;4.63;;;8.20;99.90;;;;;;5093989;28;20306;-69
2022/12/28 00:03:56;;;;;;;7.03;4.80;;;8.20;99.90;;;;;;5093065;28;20171;-69
2022/12/28 00:06:26;;;;;;;8.73;4.53;;;8.30;99.90;;;;;;5093947;28;20217;-70
2022/12/28 00:08:53;;;;;;;5.33;4.33;;;8.20;99.90;;;;;;5094041;28;20723;-70
2022/12/28 00:11:20;;;;;;;7.03;4.87;;;8.20;99.90;;;;;;5094001;28;20200;-70
2022/12/28 00:13:49;;;;;;;7.47;4.70;;;8.20;99.90;;;;;;5093937;28;20172;-70
2022/12/28 00:16:26;;;;;;;6.03;4.60;;;8.30;99.90;;;;;;5093738;28;20271;-70
2022/12/28 00:18:52;;;;;;;4.73;4.33;;;8.30;99.90;;;;;;5093902;28;20176;-69
2022/12/28 00:21:18;;;;;;;4.00;3.70;;;8.30;99.90;;;;;;5093615;28;20257;-69
2022/12/28 00:23:43;;;;;;;4.63;4.10;;;8.30;99.90;;;;;;5092552;28;20670;-70
2022/12/28 00:26:15;;;;;;;4.90;4.30;;;8.30;99.90;;;;;;5093900;28;20210;-70
2022/12/28 00:28:41;;;;;;;5.20;4.70;;;8.40;99.90;;;;;;5093788;28;20168;-71
2022/12/28 00:31:09;;;;;;;5.50;4.47;;;8.30;99.90;;;;;;5093202;28;20592;-70
2022/12/28 00:33:35;;;;;;;5.23;4.63;;;8.30;99.90;;;;;;5093691;28;20259;-70
2022/12/28 00:36:01;;;;;;;5.37;4.60;;;8.40;99.90;;;;;;5093651;28;20698;-71
2022/12/28 00:38:32;;;;;;;6.53;4.63;;;8.30;99.90;;;;;;5093661;28;20525;-70
2022/12/28 00:40:58;;;;;;;5.27;4.43;;;8.40;99.90;;;;;;5093323;28;20223;-69
2022/12/28 00:43:26;;;;;;;6.67;4.57;;;8.40;99.90;;;;;;5092840;28;20183;-70
2022/12/28 00:45:52;;;;;;;4.70;4.30;;;8.40;99.90;;;;;;5093534;28;20623;-70
2022/12/28 00:48:18;;;;;;;5.70;5.20;;;8.40;99.90;;;;;;5093330;28;20205;-70
2022/12/28 00:50:46;;;;;;;5.70;4.87;;;8.40;99.90;;;;;;5093517;28;20630;-69
2022/12/28 00:53:12;;;;;;;6.60;4.53;;;8.40;99.90;;;;;;5093557;28;20706;-70
2022/12/28 00:55:38;;;;;;;5.13;4.63;;;8.50;99.90;;;;;;5093368;28;20259;-70
2022/12/28 00:58:04;;;;;;;5.73;4.53;;;8.50;99.90;;;;;;5093042;28;20507;-70
2022/12/28 01:00:49;;;;;;;6.37;4.93;;;8.40;99.90;;;;;;5093391;28;20530;-70
2022/12/28 01:03:15;;;;;;;6.23;4.60;;;8.50;99.90;;;;;;5093119;28;20207;-70
2022/12/28 01:05:40;;;;;;;4.97;4.27;;;8.50;99.90;;;;;;5093377;28;20214;-69
2022/12/28 01:08:06;;;;;;;5.13;4.70;;;8.50;99.90;;;;;;5093168;28;20179;-69
2022/12/28 01:10:32;;;;;;;5.83;4.67;;;8.60;99.90;;;;;;5093403;28;20168;-69
2022/12/28 01:12:57;;;;;;;6.33;4.63;;;8.60;99.90;;;;;;5092958;28;20685;-69
2022/12/28 01:15:25;;;;;;;6.40;4.53;;;8.70;99.90;;;;;;5093022;28;20178;-69
2022/12/28 01:17:51;;;;;;;8.03;4.80;;;8.70;99.90;;;;;;5093289;28;20164;-69
2022/12/28 01:20:16;;;;;;;4.63;4.20;;;8.70;99.90;;;;;;5093135;28;20172;-69
2022/12/28 01:22:42;;;;;;;9.23;4.80;;;8.70;99.90;;;;;;5092986;28;20207;-69
2022/12/28 01:25:11;;;;;;;6.83;4.70;;;8.70;99.90;;;;;;5091983;28;20236;-70
2022/12/28 01:27:37;;;;;;;4.73;4.33;;;8.80;99.90;;;;;;5092779;28;20172;-70
2022/12/28 01:30:04;;;;;;;6.00;5.13;;;8.80;99.90;;;;;;5093171;28;20187;-70
2022/12/28 01:32:30;;;;;;;5.23;4.73;;;8.80;99.90;;;;;;5092953;28;20180;-70
2022/12/28 01:34:55;;;;;;;6.50;4.77;;;8.80;99.90;;;;;;5093172;28;20191;-69
2022/12/28 01:37:24;;;;;;;7.43;4.93;;;8.80;99.90;;;;;;5093056;28;20179;-69
2022/12/28 01:39:49;;;;;;;5.87;4.83;;;8.80;99.90;;;;;;5092582;28;20223;-68
2022/12/28 01:42:18;;;;;;;5.83;5.30;;;8.80;99.90;;;;;;5092468;28;20231;-70
2022/12/28 01:44:46;;;;;;;4.90;4.40;;;8.80;99.90;;;;;;5092920;28;20164;-69
2022/12/28 01:47:25;;;;;;;8.93;5.23;;;8.80;99.90;;;;;;5093089;28;20179;-69
2022/12/28 01:50:20;;;;;;;5.50;5.00;;;8.90;99.90;;;;;;5092944;28;20273;-69
2022/12/28 01:52:57;;;;;;;5.20;4.80;;;8.90;99.90;;;;;;4994307;28;20195;-70
2022/12/28 01:55:30;;;;;;;5.87;4.87;;;8.80;99.90;;;;;;5012933;28;20271;-70
2022/12/28 01:58:05;;;;;;;5.60;5.10;;;8.70;99.90;;;;;;5014202;28;20183;-70
2022/12/28 02:00:32;;;;;;;7.23;5.67;;;8.70;99.90;;;;;;5014344;28;20178;-70
2022/12/28 02:03:02;;;;;;;8.20;5.43;;;8.70;99.90;;;;;;5014498;28;20182;-70
2022/12/28 02:05:35;;;;;;;7.20;5.90;;;8.70;99.90;;;;;;5014340;28;20178;-70
2022/12/28 02:08:15;;;;;;;8.20;6.10;;;8.70;99.90;;;;;;5014209;28;20179;-70
2022/12/28 02:10:41;;;;;;;6.27;5.60;;;8.60;99.90;;;;;;5014040;28;20222;-70
2022/12/28 02:13:08;;;;;;;9.80;5.80;;;8.60;99.90;;;;;;5014165;28;20723;-69
2022/12/28 02:15:34;;;;;;;6.63;5.80;;;8.70;99.90;;;;;;4997823;28;20178;-69
2022/12/28 02:18:00;;;;;;;8.00;5.77;;;8.60;99.90;;;;;;5014111;28;20186;-69
2022/12/28 02:20:36;;;;;;;7.63;5.80;;;8.60;99.90;;;;;;5014279;28;20167;-70
2022/12/28 02:23:33;;;;;;;9.40;5.30;;;8.70;99.90;;;;;;5014037;28;20218;-70
2022/12/28 02:26:13;;;;;;;7.60;5.70;;;8.70;99.90;;;;;;5013642;28;20174;-69
2022/12/28 02:29:03;;;;;;;9.43;5.23;;;8.70;99.90;;;;;;5037713;28;20179;-69
2022/12/28 02:31:45;;;;;;;5.50;5.00;;;8.80;99.90;;;;;;5095928;28;20168;-69
2022/12/28 02:34:19;;;;;;;5.30;4.80;;;8.80;99.90;;;;;;5095975;28;20179;-70
2022/12/28 02:36:54;;;;;;;8.17;5.23;;;8.80;99.90;;;;;;5096043;28;20170;-69
2022/12/28 02:39:24;;;;;;;6.00;5.00;;;8.90;99.90;;;;;;5095195;28;20192;-70
2022/12/28 02:41:51;;;;;;;5.60;5.10;;;8.90;99.90;;;;;;5095717;28;20243;-70
2022/12/28 02:50:04;;;;;;;9.20;4.97;;;9.00;99.90;;;;;;5095680;28;20213;-70
2022/12/28 02:50:06;;;;;;;6.40;5.20;;;9.00;99.90;;;;;;5095982;28;20198;-70
2022/12/28 02:52:50;;;;;;;9.13;4.63;;;9.00;99.90;;;;;;5095663;28;20225;-70
2022/12/28 02:58:33;;;;;;;8.07;4.30;;;9.00;99.90;;;;;;5095584;28;20187;-69
2022/12/28 03:01:20;;;;;;;5.17;4.57;;;9.10;99.90;;;;;;5095470;28;20196;-69
2022/12/28 03:04:23;;;;;;;6.57;4.40;;;9.10;99.90;;;;;;5095296;28;20202;-69
2022/12/28 03:10:20;;;;;;;8.77;4.40;;;9.20;99.90;;;;;;5094823;28;20171;-70
2022/12/28 03:13:00;;;;;;;6.43;4.33;;;9.10;99.90;;;;;;5095180;28;20175;-69
2022/12/28 03:15:33;;;;;;;9.10;4.40;;;9.20;99.90;;;;;;5095354;28;20168;-68
2022/12/28 03:32:08;;;;;;;7.70;4.03;;;9.30;99.90;;;;;;5095149;28;20179;-69
2022/12/28 03:34:34;;;;;;;6.67;3.93;;;9.30;99.90;;;;;;5094913;28;20172;-70
2022/12/28 03:37:37;;;;;;;5.60;4.30;;;9.20;99.90;;;;;;5094580;28;20237;-70
2022/12/28 03:40:17;;;;;;;4.67;3.67;;;9.30;99.90;;;;;;5093750;28;20223;-69
2022/12/28 03:45:50;;;;;;;5.00;4.50;;;9.30;99.90;;;;;;5094463;28;20557;-69
2022/12/28 03:48:16;;;;;;;5.30;3.87;;;9.30;99.90;;;;;;5094624;28;20199;-69
2022/12/28 03:50:45;;;;;;;6.43;3.97;;;9.30;99.90;;;;;;5094400;28;20168;-69
2022/12/28 03:53:11;;;;;;;4.13;3.70;;;9.30;99.90;;;;;;5094138;28;20640;-69
2022/12/28 03:55:39;;;;;;;6.33;4.10;;;9.30;99.90;;;;;;5094274;28;20160;-70
2022/12/28 03:58:05;;;;;;;5.90;3.70;;;9.30;99.90;;;;;;5094206;28;20317;-70
2022/12/28 04:00:31;;;;;;;7.23;4.03;;;9.30;99.90;;;;;;5094188;28;20179;-70
2022/12/28 04:02:57;;;;;;;6.93;4.20;;;9.30;99.90;;;;;;5092971;28;20298;-70
2022/12/28 04:05:23;;;;;;;8.03;4.17;;;9.40;99.90;;;;;;5094366;28;20282;-69
2022/12/28 04:07:48;;;;;;;6.80;3.87;;;9.40;99.90;;;;;;5092486;28;20251;-69
2022/12/28 04:10:14;;;;;;;6.90;4.00;;;9.30;99.90;;;;;;5094046;28;20190;-69
2022/12/28 04:12:56;;;;;;;6.93;3.80;;;9.30;99.90;;;;;;5093922;28;20628;-69
2022/12/28 04:15:21;;;;;;;6.87;3.63;;;9.30;99.90;;;;;;5093574;28;20172;-69
2022/12/28 04:17:47;;;;;;;10.50;4.23;;;9.40;99.90;;;;;;5092224;28;20233;-69
2022/12/28 04:20:13;;;;;;;8.00;3.83;;;9.40;99.90;;;;;;5093252;28;20168;-69
2022/12/28 04:22:41;;;;;;;5.63;4.20;;;9.40;99.90;;;;;;5093207;28;20571;-69
2022/12/28 04:25:07;;;;;;;5.17;4.03;;;9.40;99.90;;;;;;5093713;28;20183;-69
2022/12/28 04:27:36;;;;;;;7.03;4.23;;;9.40;99.90;;;;;;5093717;28;20176;-69
2022/12/28 04:30:01;;;;;;;6.17;4.50;;;9.30;99.90;;;;;;5093601;28;20168;-70
2022/12/28 04:32:28;;;;;;;5.47;4.30;;;9.20;99.90;;;;;;5092360;28;20171;-69
2022/12/28 04:34:53;;;;;;;4.83;4.33;;;9.20;99.90;;;;;;5093301;28;20281;-69
2022/12/28 04:37:19;;;;;;;7.60;4.93;;;9.20;99.90;;;;;;5093220;28;20574;-70
2022/12/28 04:39:44;;;;;;;7.73;5.00;;;9.20;99.90;;;;;;5093387;28;20231;-70
2022/12/28 04:42:13;;;;;;;8.93;5.10;;;9.20;99.90;;;;;;5093193;28;20215;-70
2022/12/28 04:44:38;;;;;;;6.93;4.70;;;9.10;99.90;;;;;;5093184;28;20309;-70
2022/12/28 04:47:04;;;;;;;4.40;4.10;;;9.10;99.90;;;;;;5093399;28;20217;-69
2022/12/28 04:49:29;;;;;;;4.60;4.20;;;9.10;99.90;;;;;;5093143;28;20611;-69
2022/12/28 04:51:55;;;;;;;5.93;4.57;;;9.10;99.90;;;;;;5092673;28;20642;-70
2022/12/28 04:54:20;;;;;;;6.60;3.87;;;9.10;99.90;;;;;;5092548;28;20171;-69
2022/12/28 04:56:49;;;;;;;6.03;3.83;;;9.20;99.90;;;;;;5093321;28;20168;-69
2022/12/28 04:59:17;;;;;;;5.17;3.27;;;9.20;99.90;;;;;;5093157;28;20164;-70
2022/12/28 05:01:43;;;;;;;4.03;2.97;;;9.20;99.90;;;;;;5092774;28;20208;-70
2022/12/28 05:04:09;;;;;;;5.50;2.80;;;9.30;99.90;;;;;;5093115;28;20831;-69
2022/12/28 05:06:34;;;;;;;4.70;2.80;;;9.30;99.90;;;;;;5092253;28;20225;-69
2022/12/28 05:09:00;;;;;;;5.20;2.60;;;9.40;99.90;;;;;;5092787;28;20175;-68
2022/12/28 05:11:30;;;;;;;3.60;2.87;;;9.50;99.90;;;;;;5092508;28;20204;-69
2022/12/28 05:13:57;;;;;;;6.33;2.67;;;9.50;99.90;;;;;;5092669;28;20160;-69
2022/12/28 05:16:25;;;;;;;6.00;2.60;;;9.60;99.90;;;;;;5093102;28;20240;-70
2022/12/28 05:18:50;;;;;;;3.20;2.50;;;9.60;99.90;;;;;;5092464;28;20531;-68
2022/12/28 05:21:19;;;;;;;5.47;2.43;;;9.60;99.90;;;;;;5092267;28;20302;-69
2022/12/28 05:23:45;;;;;;;4.73;2.23;;;9.70;99.90;;;;;;5090953;28;20195;-69
2022/12/28 05:26:13;;;;;;;3.73;2.10;;;9.70;99.90;;;;;;5092679;28;20172;-70
2022/12/28 05:28:39;;;;;;;3.47;2.13;;;9.80;99.90;;;;;;5092893;28;20184;-69
2022/12/28 05:31:06;;;;;;;6.40;2.33;;;9.80;99.90;;;;;;5095875;28;20217;-68
2022/12/28 05:33:36;;;;;;;6.67;2.33;;;9.80;99.90;;;;;;5096238;28;20176;-70
2022/12/28 05:36:09;;;;;;;3.23;2.47;;;9.80;99.90;;;;;;5096322;28;20187;-70
2022/12/28 05:38:35;;;;;;;3.90;2.23;;;9.90;99.90;;;;;;5096766;28;20301;-70
2022/12/28 05:41:14;;;;;;;5.60;2.53;;;9.90;99.90;;;;;;5095409;28;20227;-70
2022/12/28 05:43:39;;;;;;;3.00;1.93;;;9.90;99.90;;;;;;5096563;28;20176;-69
2022/12/28 05:46:23;;;;;;;4.43;1.97;;;9.90;99.90;;;;;;5095795;28;20677;-70
2022/12/28 05:48:49;;;;;;;2.87;2.20;;;10.00;99.90;;;;;;5096127;28;20638;-70
2022/12/28 05:51:19;;;;;;;3.30;2.10;;;10.00;99.90;;;;;;5096246;28;20176;-69
2022/12/28 05:53:45;;;;;;;3.60;2.27;;;10.00;99.90;;;;;;5096497;28;20211;-69
2022/12/28 05:56:16;;;;;;;5.07;2.40;;;10.10;99.90;;;;;;5096158;28;20182;-70
2022/12/28 05:58:43;;;;;;;5.37;2.40;;;10.10;99.90;;;;;;5095930;28;20172;-70
2022/12/28 06:01:13;;;;;;;6.33;1.97;;;10.10;99.90;;;;;;5095985;28;20302;-69
2022/12/28 06:03:42;;;;;;;5.90;2.20;;;10.10;99.90;;;;;;5095978;28;20176;-70
2022/12/28 06:06:13;;;;;;;5.80;2.50;;;10.10;99.90;;;;;;5095729;28;20190;-70
2022/12/28 06:08:46;;;;;;;4.10;2.20;;;10.10;99.90;;;;;;5096056;28;20164;-70
2022/12/28 06:11:14;;;;;;;4.30;2.60;;;10.10;99.90;;;;;;5095846;28;20168;-70
2022/12/28 06:13:40;;;;;;;4.27;2.00;;;10.00;99.90;;;;;;5096055;28;20218;-70
2022/12/28 06:16:06;;;;;;;3.57;2.30;;;10.10;99.90;;;;;;5096182;28;20199;-70
2022/12/28 06:18:33;;;;;;;4.47;2.50;;;10.00;99.90;;;;;;5095529;28;20333;-69
2022/12/28 06:21:20;;;;;;;5.87;2.60;;;10.00;99.90;;;;;;5095357;28;20295;-70
2022/12/28 06:23:46;;;;;;;5.63;2.43;;;10.00;99.90;;;;;;5095708;28;20187;-69
2022/12/28 06:26:15;;;;;;;5.70;2.10;;;10.10;99.90;;;;;;5095381;28;20156;-69
2022/12/28 06:28:41;;;;;;;4.87;2.40;;;10.10;99.90;;;;;;5095608;28;20168;-69
2022/12/28 06:31:14;;;;;;;7.33;2.80;;;10.10;99.90;;;;;;5095372;28;20176;-69
2022/12/28 06:33:41;;;;;;;4.80;2.27;;;10.10;99.90;;;;;;5095098;28;20176;-70
2022/12/28 06:36:33;;;;;;;5.77;1.90;;;10.10;99.90;;;;;;5095261;28;20171;-69
2022/12/28 06:39:00;;;;;;;6.80;2.20;;;10.20;99.90;;;;;;5095461;28;20160;-69
2022/12/28 06:41:27;;;;;;;5.47;2.40;;;10.20;99.90;;;;;;5093859;28;20300;-71
2022/12/28 06:43:54;;;;;;;6.17;2.27;;;10.10;99.90;;;;;;5095044;28;20267;-69
2022/12/28 06:46:21;;;;;;;4.87;2.30;;;10.10;99.90;;;;;;5095451;28;20210;-71
2022/12/28 06:48:47;;;;;;;5.83;2.27;;;10.10;99.90;;;;;;5094757;28;20202;-69
2022/12/28 06:51:17;;;;;;;5.13;2.50;;;10.10;99.90;;;;;;5093948;28;20199;-70
2022/12/28 06:53:44;;;;;;;6.80;2.47;;;10.10;99.90;;;;;;5095414;28;20164;-70
2022/12/28 06:56:21;;;;;;;4.60;2.17;;;10.20;99.90;;;;;;5094824;28;20164;-69
2022/12/28 06:58:48;;;;;;;7.87;2.10;;;10.30;99.90;;;;;;5094344;28;20199;-72
2022/12/28 07:01:15;;;;;;;4.57;2.07;;;10.30;99.90;;;;;;5094266;28;20187;-70
2022/12/28 07:03:52;;;;;;;5.87;2.27;;;10.30;99.90;;;;;;5094889;28;20623;-69
2022/12/28 07:09:15;;;;;;;5.03;2.00;;;10.30;99.90;;;;;;5052149;28;20189;-70
2022/12/28 07:11:42;;;;;;;5.70;2.37;;;10.30;99.90;;;;;;5051327;28;20203;-70
2022/12/28 07:14:08;;;;;;;4.40;1.90;;;10.40;99.90;;;;;;5052001;28;20185;-70
2022/12/28 07:16:33;;;;;;;6.47;2.50;;;10.40;99.90;;;;;;5051730;28;20231;-70
2022/12/28 07:18:59;;;;;;;3.93;1.87;;;10.40;99.90;;;;;;5052578;28;20193;-70
2022/12/28 07:21:28;;;;;;;6.63;2.10;;;10.50;99.90;;;;;;5051896;28;20217;-69
2022/12/28 07:23:55;;;;;;;5.13;2.20;;;10.40;99.90;;;;;;5051717;28;20189;-70
2022/12/28 07:26:26;;;;;;;4.07;2.10;;;10.40;99.90;;;;;;5051406;28;20193;-70
2022/12/28 07:28:56;;;;;;;7.20;2.17;;;10.40;99.90;;;;;;5052527;28;20239;-70
2022/12/28 07:31:24;;;;;;;6.77;2.50;;;10.40;99.90;;;;;;5051744;28;20177;-70
2022/12/28 07:33:51;;;;;;;4.00;1.97;;;10.40;99.90;;;;;;5035017;28;20181;-70
2022/12/28 07:36:19;;;;;;;6.50;2.10;;;10.40;99.90;;;;;;5051644;28;20198;-70
2022/12/28 07:38:45;;;;;;;4.93;2.20;;;10.30;99.90;;;;;;5051908;28;20595;-70
2022/12/28 07:41:15;;;;;;;4.47;2.10;;;10.30;99.90;;;;;;5050835;28;20229;-70
2022/12/28 07:43:41;;;;;;;7.53;2.20;;;10.30;99.90;;;;;;5051416;28;20177;-70
2022/12/28 07:46:12;;;;;;;5.33;2.30;;;10.20;99.90;;;;;;5061242;28;20187;-70
2022/12/28 07:48:39;;;;;;;5.50;2.40;;;10.20;99.90;;;;;;5073770;28;20171;-70
2022/12/28 07:51:20;;;;;;;5.93;2.07;;;10.20;99.90;;;;;;5072644;28;20225;-70
2022/12/28 07:53:48;;;;;;;10.00;2.53;;;10.10;99.90;;;;;;5072681;28;20177;-70
2022/12/28 07:56:14;;;;;;;6.10;2.53;;;10.10;99.90;;;;;;5073350;28;20176;-70
2022/12/28 07:58:58;;;;;;;6.33;2.37;;;10.10;99.90;;;;;;5073180;28;20280;-70
2022/12/28 08:01:26;;;;;;;5.27;2.27;;;10.00;99.90;;;;;;5073440;28;20210;-69
2022/12/28 08:03:58;;;;;;;2.73;2.17;;;10.10;99.90;;;;;;5073151;28;20199;-69
2022/12/28 08:06:34;;;;;;;4.93;2.70;;;10.00;99.90;;;;;;5073062;28;20207;-70
2022/12/28 08:09:02;;;;;;;4.43;2.60;;;10.00;99.90;;;;;;5073587;28;20620;-70
2022/12/28 08:11:31;;;;;;;7.40;2.60;;;9.90;99.90;;;;;;5073032;28;20173;-70
2022/12/28 08:13:57;;;;;;;9.13;2.93;;;9.90;99.90;;;;;;5072565;28;20204;-70
2022/12/28 08:16:25;;;;;;;4.23;3.00;;;9.90;99.90;;;;;;5073363;28;20211;-70
2022/12/28 08:18:52;;;;;;;4.67;3.00;;;9.80;99.90;;;;;;5073221;28;20165;-70
2022/12/28 08:21:23;;;;;;;8.37;3.27;;;9.90;99.90;;;;;;5072152;28;20353;-69
2022/12/28 08:23:49;;;;;;;8.63;4.00;;;9.90;99.90;;;;;;5072615;28;20211;-70
2022/12/28 08:26:18;;;;;;;5.83;3.30;;;9.90;99.90;;;;;;5072898;28;20172;-71
2022/12/28 08:28:49;;;;;;;4.47;3.30;;;9.90;99.90;;;;;;5072382;28;20207;-70
2022/12/28 08:31:20;;;;;;;7.23;4.03;;;9.80;99.90;;;;;;5072541;28;20172;-69
2022/12/28 08:33:47;;;;;;;6.20;3.47;;;9.90;99.90;;;;;;5072910;28;20169;-70
2022/12/28 08:36:13;;;;;;;7.97;3.90;;;9.80;99.90;;;;;;5073325;28;20168;-70
2022/12/28 08:38:42;;;;;;;7.53;3.90;;;9.70;99.90;;;;;;5072686;28;20178;-69
2022/12/28 08:41:13;;;;;;;8.07;4.33;;;9.70;99.90;;;;;;5088334;28;20677;-71
2022/12/28 08:43:38;;;;;;;8.90;4.50;;;9.70;99.90;;;;;;5092480;28;20184;-71
2022/12/28 08:46:11;;;;;;;9.43;4.37;;;9.70;99.90;;;;;;5093030;28;20172;-71
2022/12/28 08:48:47;;;;;;;6.20;4.40;;;9.70;99.90;;;;;;5092634;28;20172;-71
2022/12/28 08:51:18;;;;;;;10.60;4.40;;;9.60;99.90;;;;;;5092797;28;20171;-70
2022/12/28 08:53:48;;;;;;;9.03;4.17;;;9.70;99.90;;;;;;5093167;28;20172;-70
2022/12/28 08:56:29;;;;;;;5.53;4.17;;;9.70;99.90;;;;;;5092140;28;20190;-70
2022/12/28 08:58:55;;;;;;;9.37;4.50;;;9.70;99.90;;;;;;5092348;28;20211;-70
2022/12/28 09:01:59;;;;;;;9.47;4.33;;;9.70;99.90;;;;;;5092089;28;20554;-70
2022/12/28 09:04:25;;;;;;;8.83;4.17;;;9.70;99.90;;;;;;5090742;28;20171;-70
2022/12/28 09:06:50;;;;;;;10.63;4.90;;;9.80;99.90;;;;;;5091453;28;20259;-70
2022/12/28 09:09:23;;;;;;;8.13;4.73;;;9.80;99.90;;;;;;5092808;28;20168;-71
2022/12/28 09:11:49;;;;;;;8.97;4.30;;;9.90;99.90;;;;;;5091730;28;20190;-69
2022/12/28 09:14:15;;;;;;;6.37;4.10;;;9.90;99.90;;;;;;5092269;28;20249;-70
2022/12/28 09:16:40;;;;;;;6.73;4.43;;;9.90;99.90;;;;;;5092459;28;20164;-70
2022/12/28 09:19:08;;;;;;;5.67;4.10;;;10.00;99.90;;;;;;5092796;28;20172;-70
2022/12/28 09:21:36;;;;;;;4.87;3.80;;;9.90;99.90;;;;;;5092743;28;20285;-70
2022/12/28 09:24:02;;;;;;;6.03;4.53;;;9.90;99.90;;;;;;5092114;28;20226;-70
2022/12/28 09:26:33;;;;;;;7.23;4.40;;;10.00;99.90;;;;;;5092236;28;20167;-70
2022/12/28 09:29:01;;;;;;;7.43;4.17;;;10.00;99.90;;;;;;5092121;28;20172;-71
2022/12/28 09:31:28;;;;;;;5.83;3.57;;;10.00;99.90;;;;;;5092354;28;20175;-70
2022/12/28 09:33:57;;;;;;;6.40;3.90;;;10.00;99.90;;;;;;5092678;28;20168;-70
2022/12/28 09:36:24;;;;;;;8.43;4.10;;;10.00;99.90;;;;;;5091005;28;20172;-69
2022/12/28 09:38:53;;;;;;;8.17;4.10;;;10.00;99.90;;;;;;5092468;28;20175;-70
2022/12/28 09:41:34;;;;;;;11.83;4.37;;;10.00;99.90;;;;;;5091233;28;20239;-72
2022/12/28 09:44:18;;;;;;;8.23;4.20;;;10.00;99.90;;;;;;5092505;28;20166;-71
2022/12/28 09:47:03;;;;;;;9.30;4.27;;;10.00;99.90;;;;;;5092164;28;20199;-71
2022/12/28 09:49:51;;;;;;;6.17;4.00;;;10.00;99.90;;;;;;5092272;28;20168;-70
2022/12/28 09:52:26;;;;;;;8.17;3.80;;;10.00;99.90;;;;;;5092324;28;20240;-71
2022/12/28 09:54:52;;;;;;;9.07;4.30;;;10.00;99.90;;;;;;5091769;28;20164;-70
2022/12/28 09:57:19;;;;;;;4.67;3.63;;;10.00;99.90;;;;;;5092209;28;20175;-69
2022/12/28 09:59:46;;;;;;;5.47;3.83;;;10.00;99.90;;;;;;5091909;28;20168;-70
2022/12/28 10:02:41;;;;;;;4.40;3.30;;;10.00;99.90;;;;;;5092267;28;20222;-70
2022/12/28 10:05:07;;;;;;;5.53;3.80;;;10.00;99.90;;;;;;5009883;28;20175;-70
2022/12/28 10:07:34;;;;;;;4.67;3.63;;;10.00;99.90;;;;;;5010049;28;20177;-70
2022/12/28 10:09:59;;;;;;;5.20;3.70;;;10.00;99.90;;;;;;5009268;28;20250;-70
2022/12/28 10:12:25;;;;;;;7.47;3.70;;;10.00;99.90;;;;;;5009401;28;20179;-70
2022/12/28 10:14:52;;;;;;;4.63;3.47;;;10.00;99.90;;;;;;5010008;28;20647;-70
2022/12/28 10:17:26;;;;;;;7.83;3.87;;;10.00;99.90;;;;;;5011417;28;20183;-70
2022/12/28 10:19:56;;;;;;;6.43;4.03;;;10.10;99.90;;;;;;4997401;28;20637;-70
2022/12/28 10:22:22;;;;;;;5.37;3.70;;;10.10;99.90;;;;;;5013024;28;20373;-70
2022/12/28 10:24:54;;;;;;;9.33;3.40;;;10.10;99.90;;;;;;5013321;28;20218;-70
2022/12/28 10:27:23;;;;;;;6.67;3.90;;;10.10;99.90;;;;;;5013599;28;20229;-70
2022/12/28 10:29:53;;;;;;;4.17;3.50;;;10.10;99.90;;;;;;5013469;28;20179;-70
2022/12/28 10:32:19;;;;;;;5.57;3.40;;;10.20;99.90;;;;;;5012661;28;20177;-70
2022/12/28 10:34:57;;;;;;;6.83;3.73;;;10.10;99.90;;;;;;5013396;28;20216;-70
2022/12/28 10:37:25;;;;;;;4.17;3.10;;;10.20;99.90;;;;;;5013001;28;20265;-70
2022/12/28 10:40:00;;;;;;;6.07;3.53;;;10.20;99.90;;;;;;5012412;28;20218;-71
2022/12/28 10:42:31;;;;;;;4.93;3.60;;;10.10;99.90;;;;;;5086177;28;20272;-70
2022/12/28 10:45:05;;;;;;;5.07;3.37;;;10.20;99.90;;;;;;5095326;28;20171;-71
2022/12/28 10:47:35;;;;;;;7.30;3.90;;;10.20;99.90;;;;;;5093515;28;20175;-69
2022/12/28 10:50:01;;;;;;;6.63;3.77;;;10.20;99.90;;;;;;5095026;28;20596;-69
2022/12/28 10:52:27;;;;;;;51.43;46.40;;;10.20;99.90;;;;;;5093811;28;20684;-70
2022/12/28 10:54:53;;;;;;;7.53;4.30;;;10.20;99.90;;;;;;5094431;28;20237;-69
2022/12/28 10:57:25;;;;;;;6.83;3.27;;;10.30;99.90;;;;;;5093647;28;20184;-71
2022/12/28 10:59:51;;;;;;;5.93;4.73;;;10.20;99.90;;;;;;5095089;28;20203;-70
2022/12/28 11:02:28;;;;;;;7.87;5.27;;;10.30;99.90;;;;;;5094613;28;20227;-70
2022/12/28 11:04:57;;;;;;;26.23;23.67;;;10.30;99.90;;;;;;5094233;28;20180;-70
2022/12/28 11:07:37;;;;;;;5.10;3.67;;;10.30;99.90;;;;;;5094470;28;20172;-71
2022/12/28 11:10:28;;;;;;;5.67;4.17;;;10.40;99.90;;;;;;5094385;28;20171;-70
2022/12/28 11:12:56;;;;;;;5.53;3.70;;;10.50;99.90;;;;;;5094466;28;20595;-69
2022/12/28 11:15:25;;;;;;;12.33;8.57;;;10.50;99.90;;;;;;5094277;28;20172;-70
2022/12/28 11:18:00;;;;;;;9.57;6.17;;;10.50;99.90;;;;;;5094073;28;20168;-71
2022/12/28 11:20:35;;;;;;;6.57;3.30;;;10.50;99.90;;;;;;5094170;28;20175;-69
2022/12/28 11:23:05;;;;;;;5.73;3.37;;;10.60;99.90;;;;;;5093453;28;20225;-71
2022/12/28 11:25:33;;;;;;;7.70;3.20;;;10.60;99.90;;;;;;5094315;28;20319;-70
2022/12/28 11:28:23;;;;;;;6.17;3.53;;;10.60;99.90;;;;;;5092542;28;20179;-70
2022/12/28 11:30:50;;;;;;;6.03;3.80;;;10.70;99.90;;;;;;5093270;28;20172;-70
2022/12/28 11:33:41;;;;;;;5.03;3.27;;;10.70;99.90;;;;;;5094317;28;20266;-70
2022/12/28 11:36:14;;;;;;;5.00;3.30;;;10.70;99.90;;;;;;5093201;28;20273;-70
2022/12/28 11:38:49;;;;;;;9.40;3.60;;;10.80;99.90;;;;;;5094403;28;20176;-71
2022/12/28 11:41:23;;;;;;;7.80;3.80;;;10.80;99.90;;;;;;5093231;28;20215;-72
2022/12/28 11:43:57;;;;;;;8.50;3.20;;;10.70;99.90;;;;;;5094466;28;20213;-71
2022/12/28 11:46:23;;;;;;;7.67;3.17;;;10.80;99.90;;;;;;5093728;28;20168;-71
2022/12/28 11:49:00;;;;;;;9.07;5.13;;;10.80;99.90;;;;;;5094195;28;20192;-71
2022/12/28 11:51:28;;;;;;;7.10;3.60;;;10.90;99.90;;;;;;5093603;28;20225;-71
2022/12/28 11:53:56;;;;;;;9.73;5.73;;;10.80;99.90;;;;;;5093421;28;20246;-70
2022/12/28 11:56:42;;;;;;;6.03;3.87;;;10.90;99.90;;;;;;5093586;28;20176;-70
2022/12/28 11:59:29;;;;;;;8.17;3.63;;;10.90;99.90;;;;;;5093227;28;20183;-71
2022/12/28 12:02:22;;;;;;;13.60;8.37;;;10.90;99.90;;;;;;5093237;28;20215;-72
2022/12/28 12:04:47;;;;;;;9.77;3.40;;;11.00;99.90;;;;;;5093370;28;20172;-70
2022/12/28 12:07:19;;;;;;;8.40;3.50;;;11.00;99.90;;;;;;5093582;28;20232;-70
2022/12/28 12:09:47;;;;;;;12.93;8.67;;;11.00;99.90;;;;;;5092831;28;20167;-71
2022/12/28 12:12:12;;;;;;;10.90;6.00;;;11.00;99.90;;;;;;5093391;28;20254;-71
2022/12/28 12:14:58;;;;;;;7.27;3.50;;;11.00;99.90;;;;;;5093692;28;20302;-71
2022/12/28 12:17:41;;;;;;;9.50;3.80;;;11.00;99.90;;;;;;5093573;28;20176;-70
2022/12/28 12:20:35;;;;;;;5.60;3.30;;;11.00;99.90;;;;;;5092862;28;20195;-70
2022/12/28 12:23:26;;;;;;;6.13;3.87;;;11.00;99.90;;;;;;5093610;28;20216;-70
2022/12/28 12:25:59;;;;;;;7.67;3.67;;;11.00;99.90;;;;;;5082153;28;20286;-70
2022/12/28 12:28:34;;;;;;;9.47;3.43;;;10.90;99.90;;;;;;5092245;28;20218;-71
2022/12/28 12:31:06;;;;;;;9.83;3.20;;;11.00;99.90;;;;;;5093056;28;20175;-70
2022/12/28 12:33:36;;;;;;;4.90;2.93;;;11.00;99.90;;;;;;5093277;28;20619;-71
2022/12/28 12:36:27;;;;;;;9.50;3.57;;;11.00;99.90;;;;;;5092800;28;20182;-72
2022/12/28 12:39:11;;;;;;;8.90;3.67;;;11.00;99.90;;;;;;5092121;28;20206;-70
2022/12/28 12:42:00;;;;;;;5.60;3.50;;;11.00;99.90;;;;;;5092738;28;20547;-71
2022/12/28 12:44:35;;;;;;;8.70;3.70;;;11.00;99.90;;;;;;5092824;28;20164;-71
2022/12/28 12:47:15;;;;;;;10.03;3.70;;;11.00;99.90;;;;;;5092471;28;20202;-71
2022/12/28 12:50:09;;;;;;;3.33;2.57;;;11.10;99.90;;;;;;5092418;28;20172;-70
2022/12/28 12:53:04;;;;;;;6.60;3.37;;;11.10;99.90;;;;;;5093045;28;20643;-71
2022/12/28 12:56:08;;;;;;;6.60;2.93;;;11.10;99.90;;;;;;5092117;28;20665;-71
2022/12/28 12:59:03;;;;;;;9.57;3.33;;;11.10;99.90;;;;;;5092608;28;20163;-71
2022/12/28 13:01:46;;;;;;;7.80;4.00;;;11.10;99.90;;;;;;5092436;28;20231;-71
2022/12/28 13:04:26;;;;;;;10.70;4.60;;;11.10;99.90;;;;;;5092181;28;20267;-72
2022/12/28 13:06:57;;;;;;;13.90;9.40;;;11.10;99.90;;;;;;5092636;28;20171;-71
2022/12/28 13:09:26;;;;;;;9.33;4.33;;;11.10;99.90;;;;;;5092153;28;20225;-71
2022/12/28 13:11:53;;;;;;;28.87;21.53;;;11.30;99.90;;;;;;5092206;28;20164;-71
2022/12/28 13:14:20;;;;;;;8.00;3.07;;;11.30;99.90;;;;;;5092331;28;20176;-72
2022/12/28 13:16:57;;;;;;;6.17;3.80;;;11.40;99.90;;;;;;5092433;28;20642;-71
2022/12/28 13:19:28;;;;;;;10.57;9.37;;;11.40;99.90;;;;;;5091752;28;20169;-71
2022/12/28 13:21:56;;;;;;;7.57;5.40;;;11.40;99.90;;;;;;5092392;28;20732;-71
2022/12/28 13:24:27;;;;;;;19.40;14.23;;;11.40;99.90;;;;;;5092120;28;20188;-71
2022/12/28 13:27:02;;;;;;;10.10;3.10;;;11.50;99.90;;;;;;5092254;28;20564;-70
2022/12/28 13:29:34;;;;;;;20.40;15.43;;;11.50;99.90;;;;;;5092681;28;20257;-70
2022/12/28 13:32:03;;;;;;;4.70;3.03;;;11.60;99.90;;;;;;5091884;28;20243;-72
2022/12/28 13:34:34;;;;;;;39.47;30.93;;;11.70;99.90;;;;;;5092752;28;20172;-70
2022/12/28 13:37:02;;;;;;;6.83;2.77;;;11.70;99.90;;;;;;5092862;28;20160;-71
2022/12/28 13:39:30;;;;;;;26.57;19.53;;;11.70;99.90;;;;;;5090829;28;20168;-71
2022/12/28 13:42:10;;;;;;;7.50;3.80;;;11.70;99.90;;;;;;5091934;28;20275;-70